Time;durP1;ratioP1;P1;durP2;ratioP2;P2;SDS_P1;SDS_P2;PMS_P1;PMS_P2;Temp;Humidity;BMP_temperature;BMP_pressure;BME280_temperature;BME280_humidity;BME280_pressure;Samples;Min_cycle;Max_cycle;Signal;HPM_P1;HPM_P2
2022/03/15 00:13:16;;;;;;;7.97;2.95;;;;;;;6.86;51.92;99139.66;12872736;22;20008;-81
2022/03/15 00:56:57;;;;;;;6.72;3.28;;;;;;;6.24;53.33;99138.06;12834861;22;20055;-80
2022/03/15 01:02:19;;;;;;;9.35;4.07;;;;;;;6.18;52.70;99148.53;12898493;22;20024;-78
2022/03/15 01:07:41;;;;;;;8.90;4.43;;;;;;;6.10;53.05;99142.13;12860896;23;20241;-82
2022/03/15 01:13:03;;;;;;;9.15;4.78;;;;;;;6.06;53.33;99136.13;12861278;23;20007;-78
2022/03/15 01:18:26;;;;;;;10.55;4.97;;;;;;;6.00;53.66;99127.19;12902840;23;20001;-81
2022/03/15 01:23:48;;;;;;;12.05;4.43;;;;;;;5.99;53.71;99129.22;12860177;23;20049;-81
2022/03/15 01:29:12;;;;;;;9.82;4.10;;;;;;;5.96;54.15;99130.25;12882698;23;20001;-79
2022/03/15 02:12:05;;;;;;;11.02;4.45;;;;;;;5.78;55.08;99133.78;12695831;23;20006;-81
2022/03/15 02:17:27;;;;;;;10.25;4.07;;;;;;;5.79;54.89;99134.53;12635215;23;20069;-81
2022/03/15 02:22:49;;;;;;;8.95;4.07;;;;;;;5.71;54.76;99134.44;12675188;23;20022;-78
2022/03/15 02:28:10;;;;;;;6.45;3.80;;;;;;;5.62;55.36;99120.97;12654529;23;20009;-80
2022/03/15 02:33:31;;;;;;;9.93;3.97;;;;;;;5.65;55.54;99123.44;12674384;23;20006;-79
2022/03/15 02:38:52;;;;;;;10.50;5.40;;;;;;;5.68;55.28;99113.31;12653914;23;20018;-80
2022/03/15 02:44:12;;;;;;;8.07;4.32;;;;;;;5.66;55.26;99110.31;12654304;23;20007;-81
2022/03/15 02:49:34;;;;;;;9.27;4.57;;;;;;;5.62;55.72;99113.41;12674273;23;20033;-78
2022/03/15 02:54:56;;;;;;;8.13;4.38;;;;;;;5.62;55.92;99116.19;12674243;23;20002;-78
2022/03/15 03:00:17;;;;;;;10.25;4.35;;;;;;;5.67;55.85;99117.34;12654390;23;20006;-80
2022/03/15 03:05:41;;;;;;;8.38;3.75;;;;;;;5.58;55.71;99115.72;12678701;23;20001;-79
2022/03/15 03:11:02;;;;;;;9.50;4.40;;;;;;;5.43;55.71;99119.00;12770345;23;20010;-79
2022/03/15 03:16:24;;;;;;;9.32;3.92;;;;;;;5.43;55.81;99116.22;12796420;23;20052;-84
2022/03/15 03:21:48;;;;;;;6.57;3.88;;;;;;;5.39;55.75;99110.22;12755399;23;20001;-78
2022/03/15 03:27:13;;;;;;;9.85;4.28;;;;;;;5.37;56.51;99112.78;12775825;23;20006;-82
2022/03/15 03:32:37;;;;;;;8.02;4.13;;;;;;;5.29;56.49;99122.22;12757549;23;20007;-81
2022/03/15 03:37:58;;;;;;;11.45;4.25;;;;;;;5.23;56.22;99119.56;12775493;23;20013;-77
2022/03/15 03:43:20;;;;;;;9.30;4.28;;;;;;;5.20;56.74;99119.84;12775347;23;20032;-81
2022/03/15 03:48:41;;;;;;;12.38;4.55;;;;;;;5.14;56.93;99106.09;12795592;23;20013;-81
2022/03/15 03:54:03;;;;;;;8.68;4.68;;;;;;;5.14;56.65;99117.16;12820649;23;20045;-80
2022/03/15 03:59:24;;;;;;;9.05;4.63;;;;;;;5.10;56.84;99116.69;12779341;23;20005;-82
2022/03/15 04:04:46;;;;;;;9.07;4.90;;;;;;;5.12;56.96;99114.19;12787995;23;20002;-80
2022/03/15 04:10:08;;;;;;;12.13;5.20;;;;;;;5.11;57.39;99104.34;12758531;23;20014;-81
2022/03/15 04:15:31;;;;;;;9.30;4.45;;;;;;;5.12;57.15;99092.03;12758607;23;20001;-79
2022/03/15 04:20:55;;;;;;;12.13;5.20;;;;;;;5.13;57.26;99099.81;12760546;23;20005;-79
2022/03/15 04:26:16;;;;;;;9.57;5.10;;;;;;;5.13;56.98;99099.81;12819551;23;20037;-81
2022/03/15 04:31:37;;;;;;;8.00;4.93;;;;;;;5.11;56.88;99085.72;12799309;23;20078;-82
2022/03/15 04:36:59;;;;;;;11.05;5.25;;;;;;;4.98;57.29;99093.97;12799187;23;20077;-80
2022/03/15 04:42:19;;;;;;;8.88;5.10;;;;;;;4.88;57.57;99096.38;12778273;23;20045;-83
2022/03/15 04:47:41;;;;;;;12.57;5.85;;;;;;;4.79;57.63;99090.47;12819098;23;20006;-81
2022/03/15 04:53:02;;;;;;;10.68;5.75;;;;;;;4.78;57.22;99095.25;12798676;23;20021;-77
2022/03/15 04:58:24;;;;;;;10.30;5.53;;;;;;;4.75;57.66;99106.63;12798645;23;20001;-80
2022/03/15 05:03:45;;;;;;;8.05;4.85;;;;;;;4.79;58.17;99110.56;12769692;23;20009;-79
2022/03/15 06:31:27;;;;;;;23.50;11.65;;;;;;;8.02;53.17;99093.03;12903145;22;20008;-80
2022/03/15 06:36:49;;;;;;;24.50;12.25;;;;;;;8.42;53.68;99089.94;12963893;22;20004;-81
2022/03/15 06:42:11;;;;;;;25.25;11.73;;;;;;;8.66;52.94;99088.75;12941833;22;20000;-79
2022/03/15 06:47:34;;;;;;;24.75;11.57;;;;;;;8.86;52.57;99085.13;12983703;22;20027;-81
2022/03/15 06:52:55;;;;;;;20.33;10.07;;;;;;;8.99;52.68;99089.84;12983687;22;20028;-80
2022/03/15 06:58:17;;;;;;;21.17;9.70;;;;;;;9.03;52.10;99076.28;12962788;22;20000;-83
2022/03/15 07:03:38;;;;;;;20.63;9.93;;;;;;;9.27;52.44;99078.59;12935119;22;20008;-81
2022/03/15 07:08:59;;;;;;;16.05;9.38;;;;;;;9.56;52.14;99058.91;12898873;22;20021;-79
2022/03/15 07:14:19;;;;;;;19.02;9.13;;;;;;;9.99;52.17;99060.75;12898504;23;20000;-82
2022/03/15 07:19:40;;;;;;;19.15;8.90;;;;;;;10.33;51.06;99049.19;12917813;23;20067;-82
2022/03/15 07:25:01;;;;;;;14.15;9.00;;;;;;;10.90;50.06;99059.75;12895490;23;20044;-81
2022/03/15 07:30:22;;;;;;;16.48;9.35;;;;;;;12.11;48.78;99056.66;12907304;23;20021;-84
2022/03/15 07:42:03;;;;;;;24.13;11.00;;;;;;;15.54;42.43;99055.84;12849586;22;20021;-85
2022/03/15 07:47:27;;;;;;;17.98;9.00;;;;;;;16.50;35.43;99060.19;12798680;23;20071;-85
2022/03/15 07:52:48;;;;;;;19.92;9.98;;;;;;;17.51;39.69;99062.34;12798439;23;20016;-84
2022/03/15 07:58:09;;;;;;;19.70;9.75;;;;;;;18.28;35.46;99055.66;12817585;23;20501;-84
2022/03/15 08:03:30;;;;;;;20.50;10.40;;;;;;;19.60;35.87;99050.97;12812599;23;20324;-84
2022/03/15 08:08:56;;;;;;;19.08;9.98;;;;;;;20.85;34.48;99050.16;12834526;23;20104;-83
2022/03/15 08:14:17;;;;;;;16.52;9.82;;;;;;;20.74;32.63;99046.09;12856477;23;20336;-83
2022/03/15 08:19:39;;;;;;;19.00;10.05;;;;;;;20.45;32.05;99031.91;12836634;23;20012;-83
2022/03/15 08:25:02;;;;;;;18.42;8.80;;;;;;;20.67;29.55;99021.66;12839287;23;20309;-83
2022/03/15 08:30:23;;;;;;;19.10;10.05;;;;;;;22.11;27.49;99029.59;12819870;23;20055;-83
2022/03/15 08:35:45;;;;;;;20.65;10.30;;;;;;;24.34;26.17;99010.97;12818853;23;20013;-82
2022/03/15 08:41:06;;;;;;;22.45;9.90;;;;;;;25.52;22.35;99020.34;12831684;23;20431;-82
2022/03/15 08:46:27;;;;;;;31.65;11.10;;;;;;;24.76;21.08;99008.75;12821785;23;20017;-82
2022/03/15 08:51:50;;;;;;;16.13;8.48;;;;;;;24.57;21.75;99010.31;12823803;23;20431;-82
2022/03/15 08:57:11;;;;;;;17.48;8.27;;;;;;;24.04;20.30;99007.81;12842331;23;20017;-82
2022/03/15 09:02:32;;;;;;;24.67;9.75;;;;;;;22.93;21.84;98985.97;12822721;23;20023;-82
2022/03/15 09:07:55;;;;;;;18.40;8.23;;;;;;;21.92;22.79;98983.28;12842991;23;20017;-81
2022/03/15 09:13:16;;;;;;;16.83;9.18;;;;;;;20.65;23.49;98983.94;12842544;23;20016;-82
2022/03/15 09:18:39;;;;;;;18.02;9.02;;;;;;;20.22;24.12;98979.75;12823073;23;20497;-83
2022/03/15 09:23:59;;;;;;;16.58;8.35;;;;;;;19.67;24.17;98976.25;12821099;23;20025;-83
2022/03/15 09:29:21;;;;;;;13.10;8.82;;;;;;;19.01;25.14;98969.28;12842151;23;20449;-84
2022/03/15 09:34:43;;;;;;;12.52;7.88;;;;;;;18.65;25.79;98972.94;12842599;23;20023;-84
2022/03/15 09:40:09;;;;;;;14.13;8.98;;;;;;;18.54;25.98;98955.41;12815653;23;20016;-84
2022/03/15 09:45:34;;;;;;;19.13;10.30;;;;;;;18.63;25.88;98956.59;12820728;23;20312;-83
2022/03/15 09:50:54;;;;;;;18.50;10.20;;;;;;;18.60;26.16;98947.22;12841688;23;20024;-82
2022/03/15 09:56:15;;;;;;;14.63;8.40;;;;;;;19.06;26.05;98928.50;12821111;23;20314;-84
2022/03/15 10:01:36;;;;;;;15.55;9.68;;;;;;;18.99;26.57;98923.16;12820907;23;20040;-84
2022/03/15 10:06:57;;;;;;;20.83;8.57;;;;;;;19.21;26.23;98927.19;12821388;23;20012;-84
2022/03/15 10:12:21;;;;;;;19.15;9.40;;;;;;;20.01;25.91;98918.50;12820503;23;20012;-83
2022/03/15 10:18:04;;;;;;;16.58;8.70;;;;;;;21.56;25.15;98919.97;12841929;23;20332;-82
2022/03/15 10:23:29;;;;;;;16.75;8.68;;;;;;;22.11;24.42;98898.81;12803906;23;20021;-82
2022/03/15 10:28:54;;;;;;;20.17;8.27;;;;;;;21.88;23.61;98892.16;12862907;23;20024;-81
2022/03/15 10:34:15;;;;;;;14.63;7.68;;;;;;;22.07;23.68;98873.75;12840387;23;20494;-82
2022/03/15 10:39:37;;;;;;;15.65;7.30;;;;;;;21.60;23.20;98868.25;12835434;23;20020;-82
2022/03/15 10:44:59;;;;;;;14.48;7.78;;;;;;;21.64;23.56;98857.06;12820049;23;20423;-82
2022/03/15 10:50:23;;;;;;;12.98;7.43;;;;;;;21.55;23.78;98838.97;12799733;23;20305;-82
2022/03/15 10:55:44;;;;;;;14.25;8.02;;;;;;;21.22;23.76;98831.13;12819698;23;20012;-83
2022/03/15 11:01:09;;;;;;;12.40;8.10;;;;;;;21.12;23.77;98834.28;12860838;23;20016;-84
2022/03/15 11:06:44;;;;;;;11.60;7.88;;;;;;;21.39;23.48;98819.13;12801780;23;20063;-81
2022/03/15 11:12:13;;;;;;;12.60;8.15;;;;;;;19.98;23.83;98817.03;12806556;23;20321;-85
2022/03/15 11:17:35;;;;;;;10.93;7.80;;;;;;;18.92;25.04;98799.75;12839975;23;20013;-84
2022/03/15 11:22:59;;;;;;;18.65;8.00;;;;;;;18.50;25.68;98796.09;12858819;23;20016;-85
2022/03/15 11:28:21;;;;;;;11.93;8.18;;;;;;;18.54;26.56;98791.41;12837454;23;20017;-83
2022/03/15 11:33:44;;;;;;;12.80;8.10;;;;;;;18.28;26.26;98787.19;12857809;23;20032;-86
2022/03/15 11:39:05;;;;;;;13.80;8.27;;;;;;;18.09;27.36;98773.44;12836867;23;20017;-85
2022/03/15 11:44:35;;;;;;;13.85;8.45;;;;;;;17.63;27.07;98756.06;12816469;23;20067;-84
2022/03/15 11:50:14;;;;;;;13.27;8.85;;;;;;;17.26;27.37;98758.91;12817195;23;20048;-83
2022/03/15 11:55:56;;;;;;;16.58;9.73;;;;;;;16.75;28.93;98741.13;12837553;23;20013;-84
2022/03/15 12:01:17;;;;;;;13.63;8.52;;;;;;;16.19;28.82;98723.00;12836791;23;20016;-86
2022/03/15 12:06:57;;;;;;;14.80;8.45;;;;;;;16.33;29.90;98713.94;12799943;23;20013;-84
2022/03/15 12:12:18;;;;;;;22.92;10.07;;;;;;;16.59;30.16;98707.06;12803883;23;20017;-86
2022/03/15 12:17:39;;;;;;;12.82;8.48;;;;;;;16.88;29.24;98704.56;12843204;23;20023;-84
2022/03/15 12:23:05;;;;;;;14.55;8.93;;;;;;;16.93;29.32;98685.81;12843656;23;20013;-84
2022/03/15 12:28:28;;;;;;;15.13;8.82;;;;;;;16.86;29.30;98679.09;12844483;23;20013;-85
2022/03/15 12:34:09;;;;;;;12.23;8.48;;;;;;;16.71;30.14;98671.16;12843871;23;20024;-86
2022/03/15 12:39:33;;;;;;;15.13;9.68;;;;;;;16.55;30.37;98647.63;12803966;23;20024;-86
2022/03/15 12:44:55;;;;;;;12.85;9.70;;;;;;;16.45;30.13;98647.78;12842719;23;20017;-83
2022/03/15 12:50:20;;;;;;;12.15;8.98;;;;;;;16.52;30.42;98627.06;12864120;23;20332;-84
2022/03/15 12:55:42;;;;;;;15.20;9.02;;;;;;;16.23;30.61;98621.84;12823221;23;20017;-84
2022/03/15 13:01:04;;;;;;;12.90;8.88;;;;;;;15.82;30.72;98620.75;12843889;23;20324;-82
2022/03/15 13:06:35;;;;;;;12.88;8.32;;;;;;;15.52;31.29;98614.69;12844092;23;20036;-79
2022/03/15 13:12:16;;;;;;;12.48;8.40;;;;;;;15.31;32.10;98600.72;12843019;23;20025;-78
2022/03/15 13:17:49;;;;;;;17.08;9.23;;;;;;;15.14;32.26;98576.47;12806621;23;20016;-77
2022/03/15 13:23:11;;;;;;;16.67;9.37;;;;;;;15.18;32.43;98583.09;12855767;23;20047;-76
2022/03/15 13:28:51;;;;;;;16.02;9.73;;;;;;;15.41;32.49;98578.84;12801157;23;20024;-79
2022/03/15 13:34:29;;;;;;;15.73;9.00;;;;;;;15.15;32.54;98552.63;12788660;22;20039;-78
2022/03/15 13:52:50;;;;;;;11.85;8.00;;;;;;;14.72;33.65;98526.72;12862445;22;20039;-76
2022/03/15 13:58:12;;;;;;;12.27;8.45;;;;;;;14.58;33.90;98521.69;12856833;23;20027;-78
2022/03/15 14:03:34;;;;;;;16.08;8.00;;;;;;;14.50;34.29;98512.00;12891976;23;20036;-77
2022/03/15 14:08:56;;;;;;;10.93;7.20;;;;;;;14.43;34.14;98510.09;12878107;23;20024;-76
2022/03/15 14:14:23;;;;;;;16.98;7.40;;;;;;;14.36;34.35;98486.50;12896838;23;20007;-80
2022/03/15 14:19:50;;;;;;;17.10;8.13;;;;;;;14.39;34.44;98485.31;12941561;23;20036;-82
2022/03/15 14:25:18;;;;;;;15.57;8.00;;;;;;;14.28;34.49;98458.66;12858823;23;20072;-79
2022/03/15 14:30:40;;;;;;;14.48;8.23;;;;;;;14.09;34.89;98450.38;12900989;23;20024;-82
2022/03/15 14:36:01;;;;;;;16.52;8.10;;;;;;;14.04;34.83;98440.94;12876436;23;20062;-81
2022/03/15 14:41:22;;;;;;;16.42;8.43;;;;;;;13.94;34.78;98429.06;12916985;23;20060;-79
2022/03/15 14:46:44;;;;;;;13.95;8.63;;;;;;;13.73;35.40;98432.63;12896429;23;20008;-80
2022/03/15 14:52:05;;;;;;;13.88;8.50;;;;;;;13.55;34.96;98414.56;12867636;23;20096;-81
2022/03/15 14:57:28;;;;;;;17.98;9.38;;;;;;;13.46;35.59;98404.16;12915225;23;20052;-82
2022/03/15 15:02:52;;;;;;;15.65;9.05;;;;;;;13.40;35.42;98404.47;12869417;23;20035;-82
2022/03/15 15:08:16;;;;;;;17.63;10.40;;;;;;;13.24;35.81;98405.47;12868933;23;20049;-80
2022/03/15 15:13:38;;;;;;;18.75;9.85;;;;;;;13.22;35.93;98394.84;12869962;23;20419;-81
2022/03/15 15:19:00;;;;;;;18.10;10.50;;;;;;;13.15;35.87;98387.34;12867844;23;20020;-80
2022/03/15 15:24:22;;;;;;;20.42;10.38;;;;;;;13.03;35.74;98372.50;12888771;23;20062;-81
2022/03/15 15:29:44;;;;;;;22.33;10.90;;;;;;;12.90;35.84;98354.84;12889632;23;20021;-79
2022/03/15 15:35:07;;;;;;;22.70;9.85;;;;;;;12.85;36.05;98369.19;12867764;23;20023;-79
2022/03/15 15:40:28;;;;;;;17.88;9.68;;;;;;;12.82;36.25;98365.50;12867875;23;20024;-81
2022/03/15 15:45:52;;;;;;;60.28;15.23;;;;;;;12.81;36.34;98349.28;12910037;23;20092;-81
2022/03/15 15:51:16;;;;;;;23.67;11.98;;;;;;;12.80;36.58;98326.16;12868643;23;20024;-81
2022/03/15 15:56:42;;;;;;;21.70;11.77;;;;;;;12.77;36.42;98299.34;12873323;23;20048;-81
2022/03/15 16:02:03;;;;;;;23.17;12.35;;;;;;;12.71;36.53;98290.50;12895970;23;20016;-80
2022/03/15 16:07:31;;;;;;;21.70;12.02;;;;;;;12.67;36.82;98253.09;12895610;23;20017;-79
2022/03/15 16:12:52;;;;;;;22.17;12.60;;;;;;;12.58;37.21;98246.94;12877811;23;20016;-82
2022/03/15 16:18:12;;;;;;;28.88;12.82;;;;;;;12.45;37.42;98252.31;12874791;23;20020;-82
2022/03/15 16:23:34;;;;;;;25.42;12.65;;;;;;;12.36;37.79;98236.31;12896772;23;20059;-81
2022/03/15 16:28:55;;;;;;;26.70;12.98;;;;;;;12.33;37.81;98263.41;12890177;23;20027;-81
2022/03/15 16:34:17;;;;;;;23.83;12.77;;;;;;;12.33;37.83;98249.41;12833005;23;20046;-83
2022/03/15 16:39:39;;;;;;;23.35;13.48;;;;;;;12.31;38.04;98238.81;12874825;23;20024;-80
2022/03/15 16:44:59;;;;;;;22.33;12.63;;;;;;;12.36;37.81;98239.13;12888372;23;20064;-79
2022/03/15 16:50:21;;;;;;;25.67;13.98;;;;;;;12.34;38.35;98211.69;12875629;23;20019;-80
2022/03/15 16:55:46;;;;;;;24.95;13.75;;;;;;;12.30;38.22;98205.81;12865595;23;20017;-79
2022/03/15 17:01:07;;;;;;;30.63;13.73;;;;;;;12.26;38.34;98194.38;12835706;23;20021;-77
2022/03/15 17:06:29;;;;;;;20.90;13.57;;;;;;;12.24;38.83;98169.03;12834243;23;20016;-77
2022/03/15 17:11:56;;;;;;;27.73;14.23;;;;;;;12.19;38.92;98170.81;12804767;23;20359;-78
2022/03/15 17:17:17;;;;;;;21.13;14.05;;;;;;;12.15;38.39;98164.94;12832719;23;20020;-78
2022/03/15 17:22:38;;;;;;;26.40;14.65;;;;;;;12.18;38.46;98171.44;12851019;23;20036;-79
2022/03/15 17:28:04;;;;;;;29.55;15.23;;;;;;;12.20;38.49;98165.97;12838889;23;20024;-80
2022/03/15 17:33:28;;;;;;;23.80;14.40;;;;;;;12.19;38.20;98173.63;12832179;23;20042;-78
2022/03/15 17:38:49;;;;;;;23.65;15.48;;;;;;;12.21;38.27;98198.94;12835818;23;20024;-81
2022/03/15 17:44:11;;;;;;;23.52;15.07;;;;;;;12.22;38.02;98194.81;12854218;23;20017;-77
2022/03/15 17:49:33;;;;;;;25.23;16.17;;;;;;;12.12;38.27;98196.19;12809159;23;20017;-77
2022/03/15 17:54:54;;;;;;;23.02;16.08;;;;;;;11.92;38.80;98196.25;12832748;23;20022;-79
2022/03/15 18:00:17;;;;;;;28.13;17.02;;;;;;;11.66;40.49;98205.56;12848789;23;20074;-82
2022/03/15 18:05:38;;;;;;;28.70;17.48;;;;;;;11.48;41.64;98205.00;12807595;23;20026;-77
2022/03/15 18:11:00;;;;;;;28.52;18.52;;;;;;;11.27;43.18;98200.03;12805423;23;20051;-78
2022/03/15 18:16:23;;;;;;;27.40;17.42;;;;;;;11.00;42.75;98196.66;12825509;23;20023;-79
2022/03/15 18:21:49;;;;;;;25.00;18.00;;;;;;;10.91;43.71;98195.34;12851226;23;20043;-79
2022/03/15 18:27:11;;;;;;;28.00;17.35;;;;;;;10.88;44.55;98190.91;12872828;23;20023;-81
2022/03/15 18:32:32;;;;;;;28.25;18.33;;;;;;;10.78;45.60;98181.81;12844833;23;20095;-80
2022/03/15 18:38:13;;;;;;;27.52;18.35;;;;;;;10.68;46.67;98190.16;12880714;23;20526;-80
2022/03/15 18:43:35;;;;;;;30.35;19.17;;;;;;;10.58;48.19;98187.34;12818292;23;20016;-81
2022/03/15 18:48:55;;;;;;;29.40;20.33;;;;;;;10.52;48.21;98188.97;12852073;23;20047;-77
2022/03/15 18:54:20;;;;;;;33.40;21.50;;;;;;;10.44;48.35;98180.72;12823970;23;20024;-78
2022/03/15 18:59:42;;;;;;;34.55;23.08;;;;;;;10.37;49.58;98181.59;12825594;23;20017;-79
2022/03/15 19:05:08;;;;;;;29.00;20.85;;;;;;;10.30;51.34;98169.22;12868834;23;20020;-81
2022/03/15 19:10:30;;;;;;;39.22;24.23;;;;;;;10.19;50.97;98174.59;12896919;23;20044;-82
2022/03/15 19:15:52;;;;;;;37.38;24.35;;;;;;;10.18;54.18;98168.28;12856818;23;20043;-80
2022/03/15 19:21:22;;;;;;;37.15;23.65;;;;;;;10.11;51.76;98169.13;12831953;23;20044;-77
2022/03/15 19:26:43;;;;;;;34.83;22.75;;;;;;;10.03;52.80;98149.00;12845446;23;20016;-80
2022/03/15 19:32:05;;;;;;;29.30;19.50;;;;;;;9.99;52.53;98146.66;12840210;23;20027;-80
2022/03/15 19:37:28;;;;;;;27.63;19.85;;;;;;;9.91;53.68;98140.44;12858727;23;20415;-80
2022/03/15 19:42:50;;;;;;;26.13;16.90;;;;;;;9.82;53.41;98121.63;12898115;23;20020;-86
2022/03/15 19:48:15;;;;;;;25.80;18.42;;;;;;;9.55;54.74;98123.72;12838827;23;20016;-80
2022/03/15 19:53:36;;;;;;;;;;;;;;;9.38;54.62;98105.75;12838738;23;20025;-80
2022/03/15 19:58:58;;;;;;;23.65;16.23;;;;;;;9.32;55.46;98096.19;12867780;23;19924;-80
2022/03/15 20:04:21;;;;;;;23.38;17.20;;;;;;;9.17;57.34;98083.22;12861002;23;20017;-75
2022/03/15 20:09:43;;;;;;;25.02;16.83;;;;;;;8.89;57.72;98079.66;12840485;23;20020;-78
2022/03/15 20:15:07;;;;;;;23.38;16.40;;;;;;;8.62;59.38;98062.19;12866030;23;20008;-79
2022/03/15 20:20:36;;;;;;;27.17;20.58;;;;;;;8.63;58.33;98074.78;12876247;23;20028;-80
2022/03/15 20:25:59;;;;;;;34.38;25.45;;;;;;;8.68;58.01;98057.06;12844480;23;20013;-79
2022/03/15 20:31:22;;;;;;;37.97;26.98;;;;;;;8.73;59.63;98053.31;12874417;23;20053;-80
2022/03/15 20:36:49;;;;;;;37.97;27.23;;;;;;;8.74;61.23;98054.06;12844809;23;20044;-79
2022/03/15 20:42:10;;;;;;;34.47;25.70;;;;;;;8.54;60.71;98033.69;12870584;23;20005;-81
2022/03/15 20:47:31;;;;;;;29.38;23.67;;;;;;;8.43;59.20;98031.44;12901503;23;20009;-81
2022/03/15 20:52:55;;;;;;;35.00;24.77;;;;;;;8.36;62.88;98027.41;12867714;23;20005;-80
2022/03/15 20:58:17;;;;;;;29.05;21.15;;;;;;;8.19;63.41;98028.09;12847983;23;20028;-80
2022/03/15 21:03:40;;;;;;;25.77;18.75;;;;;;;8.08;63.19;98025.81;12876302;23;20021;-81
2022/03/15 21:09:03;;;;;;;24.27;17.88;;;;;;;8.18;63.75;98026.66;12839383;23;20005;-82
2022/03/15 21:14:33;;;;;;;20.58;17.02;;;;;;;8.26;62.05;98021.75;12838537;23;20020;-82
2022/03/15 21:19:57;;;;;;;26.13;18.23;;;;;;;8.37;62.34;98011.47;12865405;23;20395;-81
2022/03/15 21:25:20;;;;;;;21.83;17.25;;;;;;;8.51;62.60;98009.81;12850447;23;20024;-82
2022/03/15 21:30:42;;;;;;;24.20;17.35;;;;;;;8.55;62.98;98015.69;12890989;23;20027;-83
2022/03/15 21:36:05;;;;;;;23.20;18.15;;;;;;;8.41;63.08;98017.34;12866756;23;20024;-82
2022/03/15 21:41:26;;;;;;;22.38;16.98;;;;;;;8.48;63.48;98019.28;12873400;23;20013;-82
2022/03/15 21:46:48;;;;;;;23.38;17.67;;;;;;;8.48;63.08;98022.06;12921236;23;20001;-81
2022/03/15 21:52:09;;;;;;;25.00;17.27;;;;;;;8.54;63.48;98028.13;12900859;23;20028;-82
2022/03/15 21:57:31;;;;;;;24.40;18.25;;;;;;;8.63;63.85;98041.38;12879262;23;20007;-80
2022/03/15 22:02:52;;;;;;;26.17;19.13;;;;;;;8.68;63.51;98034.06;12918174;23;20028;-83
2022/03/15 22:08:14;;;;;;;23.38;18.77;;;;;;;8.69;63.59;98002.91;12836155;23;20026;-78
2022/03/15 22:13:39;;;;;;;24.92;18.35;;;;;;;8.71;63.79;98007.91;12898186;23;20000;-77
2022/03/15 22:19:01;;;;;;;;;;;;;;;8.64;64.49;98006.69;12879030;23;20016;-79
2022/03/15 22:24:24;;;;;;;26.73;19.90;;;;;;;8.66;63.78;98012.41;12900124;23;19900;-82
2022/03/15 22:29:46;;;;;;;23.65;19.42;;;;;;;8.71;64.23;98024.59;12879707;23;20017;-80
2022/03/15 23:25:48;;;;;;;32.65;25.55;;;;;;;8.51;65.22;98076.59;12902620;23;20001;-80
2022/03/15 23:31:11;;;;;;;34.45;27.33;;;;;;;8.40;65.81;98093.78;12879714;23;20007;-80
2022/03/15 23:36:32;;;;;;;33.63;25.83;;;;;;;8.41;66.08;98084.84;12899007;23;20020;-78
2022/03/15 23:41:53;;;;;;;34.42;26.05;;;;;;;8.38;65.93;98090.81;12878161;23;20005;-83
2022/03/15 23:47:15;;;;;;;28.45;23.95;;;;;;;8.38;66.06;98096.38;12898756;23;20031;-79
2022/03/15 23:52:36;;;;;;;30.42;23.40;;;;;;;8.38;66.03;98091.53;12868603;23;20008;-80
2022/03/15 23:57:57;;;;;;;26.88;22.13;;;;;;;8.33;66.38;98096.03;12858081;23;20027;-81
